Time;durP1;ratioP1;P1;durP2;ratioP2;P2;SDS_P1;SDS_P2;PMS_P1;PMS_P2;Temp;Humidity;BMP_temperature;BMP_pressure;BME280_temperature;BME280_humidity;BME280_pressure;Samples;Min_cycle;Max_cycle;Signal;HPM_P1;HPM_P2
2022/01/16 00:04:44;;;;;;;13.60;6.88;;;3.60;1.00;;;;;;4965759;28;20458;-84
2022/01/16 00:07:11;;;;;;;14.15;7.25;;;3.60;1.00;;;;;;5005988;28;20253;-85
2022/01/16 00:09:38;;;;;;;17.10;8.00;;;3.60;1.00;;;;;;5021739;28;20233;-82
2022/01/16 00:12:07;;;;;;;12.52;7.10;;;3.60;1.00;;;;;;5011481;28;20234;-83
2022/01/16 00:14:35;;;;;;;15.40;7.78;;;3.60;1.00;;;;;;5007183;28;20223;-83
2022/01/16 00:17:06;;;;;;;18.08;8.20;;;3.60;1.00;;;;;;5008158;28;20227;-83
2022/01/16 00:19:33;;;;;;;15.27;8.80;;;3.60;1.00;;;;;;4996144;28;20699;-83
2022/01/16 00:21:59;;;;;;;16.13;7.85;;;3.50;1.00;;;;;;5005606;28;20226;-83
2022/01/16 00:24:26;;;;;;;19.52;8.25;;;3.50;1.00;;;;;;5006043;28;20225;-84
2022/01/16 00:26:53;;;;;;;13.20;8.63;;;3.60;1.00;;;;;;5002900;28;20243;-83
2022/01/16 00:29:21;;;;;;;12.68;8.05;;;3.60;1.00;;;;;;5002306;28;20885;-84
2022/01/16 00:31:48;;;;;;;15.20;7.70;;;3.60;1.00;;;;;;5001894;28;20229;-83
2022/01/16 00:34:16;;;;;;;12.38;8.00;;;3.60;1.00;;;;;;5002292;28;20261;-83
2022/01/16 00:36:43;;;;;;;13.63;8.05;;;3.60;1.00;;;;;;5004562;28;20239;-85
2022/01/16 00:39:09;;;;;;;21.02;8.45;;;3.50;1.00;;;;;;5004403;28;20990;-84
2022/01/16 00:41:36;;;;;;;12.75;7.95;;;3.50;1.00;;;;;;5010942;28;20652;-83
2022/01/16 00:44:04;;;;;;;18.70;8.50;;;3.50;1.00;;;;;;5001133;28;20373;-84
2022/01/16 00:46:31;;;;;;;20.08;8.70;;;3.50;1.00;;;;;;5006624;28;20249;-84
2022/01/16 00:48:58;;;;;;;14.45;7.75;;;3.60;1.00;;;;;;5002574;28;20222;-83
2022/01/16 00:51:27;;;;;;;16.35;8.43;;;3.60;1.00;;;;;;5006572;28;20234;-83
2022/01/16 00:53:54;;;;;;;21.67;9.07;;;3.60;1.00;;;;;;5004304;28;20231;-83
2022/01/16 00:56:21;;;;;;;21.90;12.15;;;3.60;1.00;;;;;;5010864;28;20238;-83
2022/01/16 00:58:48;;;;;;;16.55;8.80;;;3.60;1.00;;;;;;5020241;28;20215;-81
2022/01/16 01:01:15;;;;;;;13.60;7.40;;;3.60;1.00;;;;;;5028715;28;20214;-81
2022/01/16 01:03:44;;;;;;;15.38;8.55;;;3.60;1.00;;;;;;5025563;28;20235;-81
2022/01/16 01:06:11;;;;;;;13.48;7.07;;;3.60;1.00;;;;;;5025829;28;20222;-83
2022/01/16 01:08:41;;;;;;;17.52;8.95;;;3.60;1.00;;;;;;5009556;28;20282;-83
2022/01/16 01:11:12;;;;;;;14.43;7.78;;;3.50;1.00;;;;;;5003143;28;20261;-84
2022/01/16 01:16:50;;;;;;;12.65;7.20;;;3.50;1.00;;;;;;4926683;28;20317;-84
2022/01/16 01:19:17;;;;;;;13.68;8.32;;;3.40;1.00;;;;;;4932076;28;20248;-84
2022/01/16 01:21:44;;;;;;;16.58;8.57;;;3.40;1.00;;;;;;4970646;28;20242;-82
2022/01/16 01:24:12;;;;;;;14.45;7.75;;;3.40;1.00;;;;;;5017858;28;20230;-83
2022/01/16 01:26:47;;;;;;;12.35;7.35;;;3.30;1.00;;;;;;5030327;28;20381;-82
2022/01/16 01:29:18;;;;;;;16.70;8.63;;;3.30;1.00;;;;;;5018301;28;20229;-83
2022/01/16 01:31:45;;;;;;;16.88;7.68;;;3.30;1.00;;;;;;5005661;28;20228;-83
2022/01/16 01:34:14;;;;;;;13.80;6.63;;;3.30;1.00;;;;;;5016303;28;20306;-83
2022/01/16 01:36:48;;;;;;;14.05;9.07;;;3.30;1.00;;;;;;5006094;28;20234;-82
2022/01/16 01:39:18;;;;;;;13.57;7.78;;;3.30;1.00;;;;;;5005403;28;20223;-82
2022/01/16 01:41:52;;;;;;;14.65;6.78;;;3.30;1.00;;;;;;5002024;28;20274;-82
2022/01/16 01:52:33;;;;;;;17.48;8.30;;;3.00;1.00;;;;;;4993183;28;20219;-83
2022/01/16 01:55:02;;;;;;;14.85;9.07;;;2.90;1.00;;;;;;4992540;28;21143;-83
2022/01/16 01:57:33;;;;;;;18.70;9.90;;;2.90;1.00;;;;;;5000099;28;20223;-83
2022/01/16 02:00:03;;;;;;;15.38;8.13;;;2.80;1.00;;;;;;5005037;28;20234;-82
2022/01/16 02:02:37;;;;;;;19.10;8.70;;;2.80;1.00;;;;;;5000498;28;20258;-83
2022/01/16 02:05:05;;;;;;;20.60;9.00;;;2.80;1.00;;;;;;4995697;28;20823;-83
2022/01/16 02:07:32;;;;;;;14.57;7.38;;;2.80;1.00;;;;;;4991350;28;20325;-83
2022/01/16 02:10:03;;;;;;;22.85;12.85;;;2.90;1.00;;;;;;4994348;28;20227;-83
2022/01/16 02:12:31;;;;;;;14.45;8.20;;;2.90;1.00;;;;;;4991613;28;20223;-82
2022/01/16 02:15:07;;;;;;;16.55;8.18;;;3.00;1.00;;;;;;4999268;28;20327;-81
2022/01/16 02:29:06;;;;;;;17.67;7.43;;;3.10;1.00;;;;;;5002769;28;21563;-82
2022/01/16 02:31:33;;;;;;;16.20;7.63;;;3.20;1.00;;;;;;5007622;28;20241;-82
2022/01/16 02:36:50;;;;;;;17.15;8.13;;;3.10;1.00;;;;;;5004240;28;20296;-82
2022/01/16 02:39:21;;;;;;;15.07;7.57;;;3.10;1.00;;;;;;5000553;28;22415;-84
2022/01/16 02:41:53;;;;;;;15.82;7.53;;;3.10;1.00;;;;;;4997971;28;20227;-83
2022/01/16 02:44:24;;;;;;;13.93;7.68;;;3.10;1.00;;;;;;4994441;28;20231;-83
2022/01/16 02:46:56;;;;;;;14.75;7.10;;;3.10;1.00;;;;;;5020210;28;20226;-80
2022/01/16 02:49:27;;;;;;;17.23;7.05;;;3.20;1.00;;;;;;5025052;28;20222;-81
2022/01/16 02:51:57;;;;;;;17.70;8.82;;;3.10;1.00;;;;;;5012737;28;20254;-83
2022/01/16 02:54:27;;;;;;;19.90;9.68;;;3.00;1.00;;;;;;5001228;28;23542;-83
2022/01/16 02:56:56;;;;;;;16.88;8.05;;;3.00;1.00;;;;;;4989732;28;20226;-82
2022/01/16 02:59:23;;;;;;;12.13;7.57;;;2.90;1.00;;;;;;4998643;28;20340;-83
2022/01/16 03:01:53;;;;;;;14.18;8.27;;;2.90;1.00;;;;;;4991891;28;20238;-83
2022/01/16 03:04:21;;;;;;;17.10;9.13;;;3.00;1.00;;;;;;4986787;28;20224;-82
2022/01/16 03:06:48;;;;;;;19.02;8.95;;;2.90;1.00;;;;;;4994067;28;20230;-83
2022/01/16 03:09:16;;;;;;;15.50;9.43;;;2.80;1.00;;;;;;4998268;28;20221;-82
2022/01/16 03:11:47;;;;;;;15.43;8.20;;;2.80;1.00;;;;;;4993202;28;20231;-81
2022/01/16 03:14:16;;;;;;;17.23;8.20;;;2.70;1.00;;;;;;4993190;28;20239;-84
2022/01/16 03:16:47;;;;;;;15.68;7.78;;;2.60;1.00;;;;;;4997589;28;20230;-83
2022/01/16 03:22:05;;;;;;;13.00;8.10;;;2.30;1.00;;;;;;5008196;28;20337;-82
2022/01/16 03:24:35;;;;;;;15.95;7.60;;;2.30;1.00;;;;;;5007259;28;20336;-84
2022/01/16 03:27:06;;;;;;;16.85;7.13;;;2.20;1.00;;;;;;4996312;28;20238;-85
2022/01/16 03:29:33;;;;;;;14.35;7.25;;;2.10;1.00;;;;;;5010328;28;20234;-84
2022/01/16 03:32:03;;;;;;;16.95;8.20;;;2.00;1.00;;;;;;5013031;28;20266;-82
2022/01/16 03:34:30;;;;;;;19.13;7.95;;;2.00;1.00;;;;;;5007133;28;21424;-82
2022/01/16 03:37:00;;;;;;;15.52;6.55;;;2.00;1.00;;;;;;5011119;28;20251;-82
2022/01/16 03:39:31;;;;;;;14.02;8.43;;;1.90;1.00;;;;;;5010773;28;20223;-83
2022/01/16 03:42:00;;;;;;;13.95;7.63;;;1.80;1.00;;;;;;4998489;28;20223;-83
2022/01/16 03:44:32;;;;;;;15.70;7.63;;;1.80;1.00;;;;;;5004184;28;20258;-83
2022/01/16 03:47:01;;;;;;;18.88;7.75;;;1.70;1.00;;;;;;4997221;28;20250;-82
2022/01/16 03:49:30;;;;;;;12.98;7.07;;;1.70;1.00;;;;;;5016489;28;20227;-83
2022/01/16 03:51:58;;;;;;;19.00;8.05;;;1.70;1.00;;;;;;5024599;28;20310;-82
2022/01/16 03:54:28;;;;;;;18.30;9.10;;;1.60;1.00;;;;;;5031058;28;20226;-82
2022/01/16 03:56:57;;;;;;;15.02;8.05;;;1.60;1.00;;;;;;5038918;28;20219;-82
2022/01/16 03:59:28;;;;;;;14.70;7.70;;;1.60;1.00;;;;;;5034225;28;20246;-83
2022/01/16 04:01:56;;;;;;;17.10;7.18;;;1.60;1.00;;;;;;5020598;28;20230;-82
2022/01/16 04:04:24;;;;;;;16.17;8.23;;;1.60;1.00;;;;;;5030777;28;20219;-81
2022/01/16 04:06:54;;;;;;;14.35;6.70;;;1.50;1.00;;;;;;5022271;28;20246;-81
2022/01/16 04:09:21;;;;;;;11.90;6.90;;;1.50;1.00;;;;;;5010734;28;20231;-84
2022/01/16 04:11:52;;;;;;;18.38;7.47;;;1.50;1.00;;;;;;4987661;28;20240;-82
2022/01/16 04:14:24;;;;;;;15.52;7.97;;;1.50;1.00;;;;;;4995378;28;20293;-82
2022/01/16 04:16:59;;;;;;;17.75;8.07;;;1.40;1.00;;;;;;4989954;28;20417;-83
2022/01/16 04:19:28;;;;;;;14.63;7.35;;;1.50;1.00;;;;;;4991983;28;20309;-83
2022/01/16 04:21:55;;;;;;;16.90;7.38;;;1.40;1.00;;;;;;5003315;28;20310;-83
2022/01/16 04:24:25;;;;;;;15.57;8.68;;;1.40;1.00;;;;;;4999225;28;20219;-82
2022/01/16 04:26:55;;;;;;;21.40;7.70;;;1.40;1.00;;;;;;4974329;28;20243;-83
2022/01/16 04:29:23;;;;;;;15.35;7.55;;;1.30;1.00;;;;;;4998130;28;20229;-81
2022/01/16 04:31:52;;;;;;;12.95;8.13;;;1.20;1.00;;;;;;5003915;28;20505;-83
2022/01/16 04:34:19;;;;;;;20.75;8.48;;;1.20;1.00;;;;;;4984966;28;20227;-84
2022/01/16 04:36:48;;;;;;;15.07;7.00;;;1.20;1.00;;;;;;4976140;28;20251;-83
2022/01/16 04:39:18;;;;;;;13.60;7.90;;;1.10;1.00;;;;;;4997476;28;20282;-83
2022/01/16 04:44:30;;;;;;;16.25;8.80;;;1.00;1.00;;;;;;4979818;28;20721;-83
2022/01/16 04:46:58;;;;;;;17.80;8.20;;;1.00;1.00;;;;;;5016748;28;21428;-82
2022/01/16 04:49:27;;;;;;;14.90;7.18;;;1.00;1.00;;;;;;4995413;28;20223;-84
2022/01/16 04:51:56;;;;;;;20.45;7.55;;;1.00;1.00;;;;;;4991821;28;20253;-85
2022/01/16 04:54:24;;;;;;;15.80;6.97;;;0.90;1.00;;;;;;4987793;28;20239;-83
2022/01/16 04:56:52;;;;;;;16.88;7.97;;;0.90;1.00;;;;;;5001575;28;20254;-83
2022/01/16 04:59:20;;;;;;;17.35;7.72;;;0.90;1.00;;;;;;4997960;28;20227;-82
2022/01/16 05:01:48;;;;;;;14.05;6.53;;;0.90;1.00;;;;;;4982155;28;20242;-84
2022/01/16 05:04:15;;;;;;;16.67;8.10;;;0.90;1.00;;;;;;4999901;28;20241;-81
2022/01/16 05:06:42;;;;;;;14.30;7.28;;;0.90;1.00;;;;;;4993400;28;20377;-84
2022/01/16 05:09:12;;;;;;;14.65;7.60;;;0.90;1.00;;;;;;5001485;28;20313;-84
2022/01/16 05:11:40;;;;;;;16.27;7.28;;;0.90;1.00;;;;;;4984377;28;20610;-82
2022/01/16 05:16:53;;;;;;;18.17;7.93;;;1.00;1.00;;;;;;5001576;28;20258;-84
2022/01/16 05:19:20;;;;;;;17.63;9.50;;;0.90;1.00;;;;;;4993291;28;20222;-83
2022/01/16 05:21:48;;;;;;;12.90;6.45;;;1.00;1.00;;;;;;4995624;28;20274;-84
2022/01/16 05:24:16;;;;;;;11.88;6.60;;;1.00;1.00;;;;;;5016935;28;20237;-83
2022/01/16 05:26:45;;;;;;;14.35;7.60;;;1.00;1.00;;;;;;5014441;28;20234;-81
2022/01/16 05:29:13;;;;;;;15.95;7.63;;;0.90;1.00;;;;;;5015865;28;20364;-83
2022/01/16 05:31:44;;;;;;;19.42;7.40;;;0.90;1.00;;;;;;4999952;28;20294;-83
2022/01/16 05:34:12;;;;;;;15.10;7.70;;;0.90;1.00;;;;;;4999294;28;20249;-83
2022/01/16 05:36:39;;;;;;;15.32;6.85;;;0.90;1.00;;;;;;5002816;28;20220;-83
2022/01/16 05:39:09;;;;;;;16.55;7.45;;;0.90;1.00;;;;;;5001512;28;20307;-83
2022/01/16 05:41:42;;;;;;;18.90;7.30;;;0.80;1.00;;;;;;5026828;28;20230;-84
2022/01/16 05:44:09;;;;;;;18.02;7.07;;;0.70;1.00;;;;;;5006511;28;20310;-82
2022/01/16 05:46:36;;;;;;;15.30;7.13;;;0.70;1.00;;;;;;5006009;28;20234;-84
2022/01/16 05:49:04;;;;;;;17.98;7.20;;;0.60;1.00;;;;;;5018714;28;20275;-83
2022/01/16 05:51:34;;;;;;;20.23;7.78;;;0.60;1.00;;;;;;5011557;28;20231;-82
2022/01/16 05:54:01;;;;;;;14.25;9.40;;;0.60;1.00;;;;;;5012064;28;20581;-83
2022/01/16 05:56:28;;;;;;;15.60;7.10;;;0.50;1.00;;;;;;5007734;28;20234;-83
2022/01/16 05:58:58;;;;;;;14.60;7.57;;;0.50;1.00;;;;;;5003707;28;20283;-84
2022/01/16 06:01:25;;;;;;;20.38;7.32;;;0.50;1.00;;;;;;5016730;28;20301;-81
2022/01/16 06:03:52;;;;;;;12.55;7.40;;;0.50;1.00;;;;;;5001526;28;20885;-83
2022/01/16 06:06:20;;;;;;;23.92;8.43;;;0.50;1.00;;;;;;5017573;28;21005;-82
2022/01/16 06:08:48;;;;;;;14.80;7.82;;;0.40;1.00;;;;;;5013846;28;20281;-81
2022/01/16 06:11:15;;;;;;;18.33;7.65;;;0.40;1.00;;;;;;5013296;28;20228;-84
2022/01/16 06:13:47;;;;;;;16.83;7.45;;;0.40;1.00;;;;;;5003559;28;20835;-83
2022/01/16 06:16:21;;;;;;;13.60;7.60;;;0.40;1.00;;;;;;5005158;28;20277;-83
2022/01/16 06:18:48;;;;;;;14.90;7.28;;;0.40;1.00;;;;;;5007407;28;20255;-83
2022/01/16 06:21:19;;;;;;;23.05;9.65;;;0.40;1.00;;;;;;4999393;28;20246;-85
2022/01/16 06:23:47;;;;;;;12.90;8.57;;;0.40;1.00;;;;;;5012636;28;20223;-82
2022/01/16 06:26:14;;;;;;;19.17;8.85;;;0.40;1.00;;;;;;5005155;28;24448;-84
2022/01/16 06:28:43;;;;;;;15.15;7.90;;;0.40;1.00;;;;;;5005226;28;20294;-82
2022/01/16 06:31:13;;;;;;;13.98;6.80;;;0.40;1.00;;;;;;4994217;28;20737;-83
2022/01/16 06:33:43;;;;;;;17.33;8.38;;;0.40;1.00;;;;;;5010623;28;20997;-83
2022/01/16 06:36:10;;;;;;;16.33;9.40;;;0.40;1.00;;;;;;5006419;28;20231;-81
2022/01/16 06:38:37;;;;;;;18.92;9.25;;;0.40;1.00;;;;;;5021890;28;20294;-82
2022/01/16 06:41:05;;;;;;;21.17;9.85;;;0.40;1.00;;;;;;5018248;28;20281;-82
2022/01/16 06:43:33;;;;;;;15.02;9.10;;;0.40;1.00;;;;;;4997157;28;20226;-82
2022/01/16 06:46:00;;;;;;;16.80;8.52;;;0.30;1.00;;;;;;4999927;28;20524;-82
2022/01/16 06:48:28;;;;;;;18.13;9.60;;;0.40;1.00;;;;;;4984048;28;20230;-82
2022/01/16 06:50:59;;;;;;;21.00;10.40;;;0.40;1.00;;;;;;5023151;28;20242;-81
2022/01/16 06:53:29;;;;;;;24.73;10.15;;;0.30;1.00;;;;;;4997948;28;20227;-82
2022/01/16 06:55:56;;;;;;;17.58;9.07;;;0.30;1.00;;;;;;5001981;28;20722;-82
2022/01/16 06:58:23;;;;;;;19.67;11.00;;;0.30;1.00;;;;;;5001745;28;20658;-84
2022/01/16 07:00:50;;;;;;;24.23;11.10;;;0.30;1.00;;;;;;4997584;28;20299;-83
2022/01/16 07:03:17;;;;;;;20.10;10.43;;;0.30;1.00;;;;;;4987669;28;21086;-83
2022/01/16 07:05:48;;;;;;;18.20;10.23;;;0.30;1.00;;;;;;4983596;28;20294;-83
2022/01/16 07:08:22;;;;;;;22.30;11.48;;;0.30;1.00;;;;;;4999101;28;20248;-83
2022/01/16 07:10:50;;;;;;;22.80;11.93;;;0.30;1.00;;;;;;4974964;28;20707;-83
2022/01/16 07:13:17;;;;;;;18.50;11.48;;;0.30;1.00;;;;;;4994075;28;20423;-83
2022/01/16 07:15:45;;;;;;;26.23;12.77;;;0.30;1.00;;;;;;4989862;28;20341;-82
2022/01/16 07:18:15;;;;;;;21.98;11.90;;;0.30;1.00;;;;;;5008615;28;20246;-84
2022/01/16 07:20:44;;;;;;;24.58;14.57;;;0.30;1.00;;;;;;5011244;28;20231;-84
2022/01/16 07:23:12;;;;;;;22.90;12.90;;;0.40;1.00;;;;;;5013545;28;20314;-82
2022/01/16 07:25:41;;;;;;;18.63;12.70;;;0.40;1.00;;;;;;5018910;28;20234;-83
2022/01/16 07:28:12;;;;;;;19.33;12.90;;;0.40;1.00;;;;;;5017377;28;20269;-85
2022/01/16 07:30:40;;;;;;;24.50;13.27;;;0.40;1.00;;;;;;4991728;28;21164;-82
2022/01/16 07:33:10;;;;;;;25.48;12.25;;;0.50;1.00;;;;;;4999583;28;20230;-83
2022/01/16 07:35:40;;;;;;;24.20;13.05;;;0.50;1.00;;;;;;4989096;28;20219;-83
2022/01/16 07:38:10;;;;;;;22.02;13.75;;;0.50;1.00;;;;;;5009234;28;20228;-83
2022/01/16 07:40:46;;;;;;;21.52;14.20;;;0.50;1.00;;;;;;4970880;28;20314;-83
2022/01/16 07:43:14;;;;;;;24.95;15.35;;;0.60;1.00;;;;;;5000629;28;20274;-83
2022/01/16 07:45:41;;;;;;;26.90;16.65;;;0.60;1.00;;;;;;4981346;28;20254;-86
2022/01/16 07:48:14;;;;;;;27.05;15.05;;;0.60;1.00;;;;;;4985704;28;20347;-81
2022/01/16 07:50:41;;;;;;;27.08;15.75;;;0.60;1.00;;;;;;4999637;28;20259;-79
2022/01/16 07:53:08;;;;;;;24.38;16.40;;;0.70;1.00;;;;;;5019131;28;20274;-81
2022/01/16 07:55:36;;;;;;;32.88;16.85;;;0.70;1.00;;;;;;5013399;28;21470;-82
2022/01/16 07:58:04;;;;;;;28.95;17.98;;;0.80;1.00;;;;;;4982106;28;20223;-82
2022/01/16 08:00:34;;;;;;;29.10;16.92;;;0.80;1.00;;;;;;4982661;28;20254;-83
2022/01/16 08:03:02;;;;;;;30.77;18.65;;;0.90;1.00;;;;;;5001907;28;20306;-82
2022/01/16 08:05:29;;;;;;;23.15;17.35;;;0.90;1.00;;;;;;4995912;28;20302;-82
2022/01/16 08:07:59;;;;;;;27.83;16.40;;;1.00;1.00;;;;;;5005908;28;20341;-82
2022/01/16 08:10:26;;;;;;;24.77;17.92;;;1.00;1.00;;;;;;5000793;28;20267;-83
2022/01/16 08:12:53;;;;;;;30.25;18.15;;;1.00;1.00;;;;;;4987658;28;20290;-83
2022/01/16 08:15:22;;;;;;;32.10;19.90;;;1.00;1.00;;;;;;4985882;28;20322;-81
2022/01/16 08:17:49;;;;;;;25.10;17.10;;;1.00;1.00;;;;;;4974074;28;20306;-82
2022/01/16 08:20:16;;;;;;;29.08;17.42;;;1.00;1.00;;;;;;4981280;28;20746;-83
2022/01/16 08:22:43;;;;;;;25.75;19.23;;;1.10;1.00;;;;;;4982928;28;20232;-82
2022/01/16 08:25:11;;;;;;;20.70;17.02;;;1.10;1.00;;;;;;4983233;28;20224;-83
2022/01/16 08:27:38;;;;;;;27.55;20.15;;;1.20;1.00;;;;;;4981635;28;20236;-83
2022/01/16 08:30:06;;;;;;;34.13;22.25;;;1.20;1.00;;;;;;4981345;28;20315;-83
2022/01/16 08:32:34;;;;;;;34.15;24.15;;;1.20;1.00;;;;;;4983435;28;20226;-82
2022/01/16 08:35:02;;;;;;;34.85;24.35;;;1.30;1.00;;;;;;4981892;28;20243;-80
2022/01/16 08:37:32;;;;;;;33.13;24.65;;;1.30;1.00;;;;;;4969050;28;20233;-81
2022/01/16 08:39:59;;;;;;;33.90;26.20;;;1.40;1.00;;;;;;4980159;28;20235;-80
2022/01/16 08:42:26;;;;;;;32.90;23.90;;;1.50;1.00;;;;;;4982380;28;20232;-80
2022/01/16 08:44:53;;;;;;;32.42;25.77;;;1.60;1.00;;;;;;4979105;28;20573;-79
2022/01/16 08:47:20;;;;;;;36.50;24.30;;;1.70;1.00;;;;;;4975709;28;20358;-79
2022/01/16 08:49:48;;;;;;;35.80;26.02;;;1.60;1.00;;;;;;4977851;28;20359;-81
2022/01/16 08:52:19;;;;;;;32.25;22.48;;;1.60;1.00;;;;;;4983805;28;20335;-81
2022/01/16 08:54:46;;;;;;;33.92;24.13;;;1.70;1.00;;;;;;4985606;28;20219;-81
2022/01/16 08:57:13;;;;;;;29.63;20.85;;;1.80;1.00;;;;;;4985139;28;20235;-81
2022/01/16 08:59:40;;;;;;;33.45;21.45;;;1.90;1.00;;;;;;4982138;28;21434;-80
2022/01/16 09:02:07;;;;;;;33.33;25.77;;;1.90;1.00;;;;;;4962586;28;20235;-80
2022/01/16 09:04:34;;;;;;;43.10;27.77;;;1.90;1.00;;;;;;4984928;28;20227;-80
2022/01/16 09:07:02;;;;;;;35.60;27.48;;;2.10;1.00;;;;;;4989123;28;20239;-81
2022/01/16 09:09:30;;;;;;;38.25;26.35;;;2.10;1.00;;;;;;4983505;28;20437;-80
2022/01/16 09:11:57;;;;;;;37.85;27.27;;;2.20;1.00;;;;;;4988597;28;20959;-79
2022/01/16 09:14:24;;;;;;;40.13;26.30;;;2.10;1.00;;;;;;4991281;28;20220;-77
2022/01/16 09:16:51;;;;;;;38.47;28.98;;;2.20;1.00;;;;;;4990908;28;21106;-79
2022/01/16 09:19:18;;;;;;;41.97;29.63;;;2.30;1.00;;;;;;5024731;28;21072;-78
2022/01/16 09:21:45;;;;;;;37.10;26.10;;;2.60;1.00;;;;;;5023182;28;20259;-77
2022/01/16 09:24:13;;;;;;;37.25;27.45;;;2.70;1.00;;;;;;5005546;28;21036;-78
2022/01/16 09:26:40;;;;;;;34.10;26.58;;;2.80;1.00;;;;;;4998901;28;20223;-79
2022/01/16 09:29:07;;;;;;;33.53;23.15;;;2.70;1.00;;;;;;4998867;28;20405;-78
2022/01/16 09:31:34;;;;;;;38.08;28.55;;;2.70;1.00;;;;;;5001412;28;20231;-78
2022/01/16 09:34:01;;;;;;;41.67;28.63;;;2.70;1.00;;;;;;5008393;28;20254;-77
2022/01/16 09:36:28;;;;;;;41.03;27.02;;;2.80;1.00;;;;;;5007566;28;20294;-78
2022/01/16 09:38:55;;;;;;;34.72;26.08;;;2.80;1.00;;;;;;4996292;28;20235;-79
2022/01/16 09:41:24;;;;;;;38.88;26.88;;;2.70;1.00;;;;;;4978288;28;20233;-79
2022/01/16 09:43:51;;;;;;;33.47;26.17;;;2.80;1.00;;;;;;4993593;28;20337;-78
2022/01/16 09:46:18;;;;;;;36.10;23.60;;;2.80;1.00;;;;;;4997773;28;21444;-79
2022/01/16 09:48:45;;;;;;;31.70;24.17;;;2.70;1.00;;;;;;4995607;28;20239;-78
2022/01/16 09:51:12;;;;;;;33.88;25.67;;;2.70;1.00;;;;;;4998237;28;20223;-78
2022/01/16 09:53:42;;;;;;;38.03;27.73;;;2.70;1.00;;;;;;4989912;28;20321;-78
2022/01/16 09:56:09;;;;;;;42.40;28.27;;;2.80;1.00;;;;;;4996482;28;20294;-78
2022/01/16 09:58:39;;;;;;;36.15;26.48;;;2.80;1.00;;;;;;4997563;28;20227;-79
2022/01/16 10:01:06;;;;;;;34.92;25.98;;;2.80;1.00;;;;;;4997225;28;20215;-78
2022/01/16 10:03:37;;;;;;;35.72;26.58;;;3.00;1.00;;;;;;5008876;28;20305;-78
2022/01/16 10:06:10;;;;;;;55.08;37.33;;;3.00;1.00;;;;;;4994189;28;21348;-79
2022/01/16 10:08:39;;;;;;;32.20;23.75;;;3.10;1.00;;;;;;4998636;28;20317;-78
2022/01/16 10:11:39;;;;;;;34.13;24.85;;;3.20;1.00;;;;;;4998083;28;20411;-78
2022/01/16 10:14:20;;;;;;;29.98;22.42;;;3.20;1.00;;;;;;4919422;28;20308;-78
2022/01/16 10:16:47;;;;;;;31.63;22.40;;;3.10;1.00;;;;;;4985529;28;20291;-80
2022/01/16 10:19:22;;;;;;;30.67;21.20;;;3.00;1.00;;;;;;4978497;28;20265;-77
2022/01/16 10:21:50;;;;;;;29.70;22.48;;;3.00;1.00;;;;;;5003691;28;20222;-80
2022/01/16 10:24:19;;;;;;;31.80;23.00;;;3.00;1.00;;;;;;5000628;28;20806;-78
2022/01/16 10:26:47;;;;;;;30.77;22.73;;;3.00;1.00;;;;;;5005796;28;20237;-76
2022/01/16 10:29:20;;;;;;;30.52;23.40;;;3.00;1.00;;;;;;5001888;28;20246;-81
2022/01/16 10:31:49;;;;;;;25.40;19.90;;;3.00;1.00;;;;;;5000414;28;20314;-79
2022/01/16 10:34:31;;;;;;;25.95;18.52;;;2.90;1.00;;;;;;5000266;28;20273;-77
2022/01/16 10:36:59;;;;;;;27.20;20.48;;;2.90;1.00;;;;;;4996773;28;20218;-78
2022/01/16 10:39:27;;;;;;;31.30;21.35;;;2.80;1.00;;;;;;5003448;28;20230;-79
2022/01/16 10:42:16;;;;;;;29.45;19.77;;;2.90;1.00;;;;;;4996564;28;20234;-79
2022/01/16 10:44:49;;;;;;;27.63;19.67;;;2.90;1.00;;;;;;4997636;28;20219;-79
2022/01/16 10:47:27;;;;;;;25.40;18.95;;;2.80;1.00;;;;;;4998772;28;20317;-80
2022/01/16 10:50:04;;;;;;;24.20;18.52;;;2.90;1.00;;;;;;4977318;28;20243;-81
2022/01/16 10:52:31;;;;;;;25.58;17.60;;;2.80;1.00;;;;;;4998053;28;20211;-77
2022/01/16 10:55:06;;;;;;;22.17;17.38;;;2.70;1.00;;;;;;5000559;28;20227;-79
2022/01/16 10:57:32;;;;;;;27.10;18.45;;;2.70;1.00;;;;;;4995139;28;20249;-79
2022/01/16 11:00:15;;;;;;;25.17;18.30;;;2.60;1.00;;;;;;4998775;28;20228;-75
2022/01/16 11:02:44;;;;;;;23.70;18.42;;;2.50;1.00;;;;;;4987857;28;20326;-77
2022/01/16 11:05:13;;;;;;;23.75;17.58;;;2.40;1.00;;;;;;4999273;28;20714;-77
2022/01/16 11:07:43;;;;;;;26.08;18.10;;;2.30;1.00;;;;;;4992017;28;20283;-79
2022/01/16 11:10:23;;;;;;;26.58;18.10;;;2.30;1.00;;;;;;4993881;28;20483;-78
2022/01/16 11:13:14;;;;;;;;;;;;;;;;;;;;;
2022/01/16 11:15:47;;;;;;;28.60;19.38;;;2.40;1.00;;;;;;4978293;28;20945;-79
2022/01/16 11:18:15;;;;;;;24.05;18.05;;;2.40;1.00;;;;;;4963272;28;20700;-79
2022/01/16 11:20:55;;;;;;;27.33;18.42;;;2.30;1.00;;;;;;4973389;28;20244;-80
2022/01/16 11:23:32;;;;;;;29.42;18.77;;;2.40;1.00;;;;;;4961316;28;20232;-80
2022/01/16 11:26:02;;;;;;;30.80;19.85;;;2.40;1.00;;;;;;4994013;28;20203;-77
2022/01/16 11:28:30;;;;;;;26.83;17.30;;;2.40;1.00;;;;;;4999018;28;20215;-79
2022/01/16 11:31:00;;;;;;;33.47;21.52;;;2.40;1.00;;;;;;4994441;28;20697;-78
2022/01/16 11:33:29;;;;;;;33.40;19.98;;;2.40;1.00;;;;;;4970635;28;20222;-79
2022/01/16 11:36:00;;;;;;;26.40;19.15;;;2.50;1.00;;;;;;4975116;28;20355;-78
2022/01/16 11:38:30;;;;;;;29.85;19.85;;;2.50;1.00;;;;;;4982132;28;20327;-79
2022/01/16 11:41:02;;;;;;;27.13;19.10;;;2.50;1.00;;;;;;4968602;28;20258;-80
2022/01/16 11:43:35;;;;;;;28.80;19.85;;;2.50;1.00;;;;;;4983200;28;20215;-79
2022/01/16 11:46:17;;;;;;;31.40;22.52;;;2.50;1.00;;;;;;4985953;28;20254;-80
2022/01/16 11:48:51;;;;;;;28.92;19.77;;;2.60;1.00;;;;;;4978101;28;20242;-78
2022/01/16 11:51:52;;;;;;;30.73;20.38;;;2.60;1.00;;;;;;4984112;28;20656;-79
2022/01/16 11:54:30;;;;;;;28.20;19.70;;;2.60;1.00;;;;;;4980952;28;20222;-79
2022/01/16 11:57:05;;;;;;;30.63;21.30;;;2.60;1.00;;;;;;4988195;28;20243;-78
2022/01/16 11:59:41;;;;;;;29.63;21.27;;;2.60;1.00;;;;;;4991978;28;20313;-79
2022/01/16 12:02:25;;;;;;;29.60;20.60;;;2.70;1.00;;;;;;4996595;28;20223;-79
2022/01/16 12:05:03;;;;;;;27.42;19.30;;;2.70;1.00;;;;;;4983649;28;20223;-79
2022/01/16 12:07:48;;;;;;;32.15;21.15;;;2.70;1.00;;;;;;4965130;28;20241;-79
2022/01/16 12:10:54;;;;;;;29.13;20.98;;;2.80;1.00;;;;;;4984640;28;20239;-79
2022/01/16 12:13:44;;;;;;;28.63;20.77;;;2.70;1.00;;;;;;4978541;28;20778;-78
2022/01/16 12:16:44;;;;;;;32.65;21.40;;;2.80;1.00;;;;;;4997455;28;20223;-79
2022/01/16 12:19:41;;;;;;;32.65;21.48;;;2.80;1.00;;;;;;5005083;28;20222;-80
2022/01/16 12:22:10;;;;;;;29.17;19.63;;;2.80;1.00;;;;;;4985422;28;20226;-79
2022/01/16 12:24:41;;;;;;;29.25;19.50;;;2.80;1.00;;;;;;5005885;28;20302;-80
2022/01/16 12:27:39;;;;;;;35.60;21.55;;;2.80;1.00;;;;;;4999841;28;20286;-80
2022/01/16 12:30:17;;;;;;;29.42;20.90;;;2.90;1.00;;;;;;4998154;28;20741;-80
2022/01/16 12:32:55;;;;;;;27.45;19.05;;;2.90;1.00;;;;;;4996187;28;20714;-78
2022/01/16 12:36:11;;;;;;;27.75;20.83;;;3.00;1.00;;;;;;5021074;28;23758;-78
2022/01/16 12:39:00;;;;;;;30.08;19.42;;;3.10;1.00;;;;;;5024030;28;20208;-79
2022/01/16 12:41:30;;;;;;;29.98;18.92;;;3.20;1.00;;;;;;5023188;28;20277;-78
2022/01/16 12:43:59;;;;;;;27.90;19.73;;;3.20;1.00;;;;;;5025105;28;21238;-77
2022/01/16 12:46:30;;;;;;;29.00;19.80;;;3.30;1.00;;;;;;5025978;28;20228;-78
2022/01/16 12:48:58;;;;;;;30.17;21.15;;;3.30;1.00;;;;;;5022266;28;20252;-78
2022/01/16 12:51:27;;;;;;;31.00;20.52;;;3.40;1.00;;;;;;5006625;28;20287;-80
2022/01/16 12:53:57;;;;;;;27.65;21.42;;;3.40;1.00;;;;;;5025466;28;20227;-77
2022/01/16 12:56:29;;;;;;;32.00;21.75;;;3.40;1.00;;;;;;5025664;28;20220;-78
2022/01/16 12:59:11;;;;;;;28.95;22.38;;;3.40;1.00;;;;;;5025491;28;20222;-78
2022/01/16 13:01:54;;;;;;;34.70;22.63;;;3.40;1.00;;;;;;5022339;28;20225;-81
2022/01/16 13:04:36;;;;;;;30.88;21.42;;;3.30;1.00;;;;;;5024250;28;20249;-81
2022/01/16 13:07:12;;;;;;;29.98;21.65;;;3.30;1.00;;;;;;5029727;28;20230;-81
2022/01/16 13:09:54;;;;;;;31.25;20.63;;;3.40;1.00;;;;;;5035274;28;20218;-81
2022/01/16 13:12:23;;;;;;;27.88;19.40;;;3.50;1.00;;;;;;5031954;28;20215;-81
2022/01/16 13:14:50;;;;;;;31.13;20.90;;;3.50;1.00;;;;;;5042133;28;20233;-80
2022/01/16 13:17:18;;;;;;;30.75;20.80;;;3.50;1.00;;;;;;5033209;28;20223;-80
2022/01/16 13:19:52;;;;;;;27.70;21.30;;;3.40;1.00;;;;;;5031170;28;20227;-79
2022/01/16 13:22:26;;;;;;;33.38;22.45;;;3.50;1.00;;;;;;5032402;28;20221;-81
2022/01/16 13:24:58;;;;;;;32.92;22.88;;;3.50;1.00;;;;;;5033014;28;20231;-79
2022/01/16 13:27:27;;;;;;;33.70;23.23;;;3.60;1.00;;;;;;5027492;28;20214;-81
2022/01/16 13:30:00;;;;;;;36.50;23.50;;;3.60;1.00;;;;;;5025388;28;20210;-79
2022/01/16 13:32:29;;;;;;;31.58;21.52;;;3.60;1.00;;;;;;5041004;28;20295;-79
2022/01/16 13:35:05;;;;;;;31.13;23.23;;;3.60;1.00;;;;;;5039002;28;20238;-82
2022/01/16 13:37:43;;;;;;;37.08;23.10;;;3.60;1.00;;;;;;5034478;28;20216;-83
2022/01/16 13:40:16;;;;;;;31.70;23.02;;;3.50;1.00;;;;;;5041451;28;20211;-80
2022/01/16 13:42:53;;;;;;;35.78;24.33;;;3.60;1.00;;;;;;5037558;28;20427;-78
2022/01/16 13:45:28;;;;;;;39.75;24.73;;;3.60;1.00;;;;;;5019589;28;21253;-78
2022/01/16 13:48:06;;;;;;;35.60;23.70;;;3.60;1.00;;;;;;5040826;28;20226;-79